Terminal Aerodrome Forecast
Issued by NWS

Home | Current Version | Previous Version | Text Only | Print | Product List | Glossary On
Versions: 1 2 3 4 5 6 7 8 9 10 11 12 13
000
FTPA31 PHFO 171735
TAFHMK
TAF
PHMK 171735Z 1718/1818 05018G28KT P6SM VCSH SCT025 BKN045
     FM171900 04022G30KT P6SM VCSH FEW025 BKN050
     FM180500 05014G23KT P6SM VCSH FEW025 BKN045=

USA.gov is the U.S. government's official web portal to all federal, state and local government web resources and services.